createdAt,value
2023-01-28T00:00:37.577Z,195
2023-01-28T00:01:08.899Z,189
2023-01-28T00:01:41.215Z,141
2023-01-28T00:02:12.917Z,151
2023-01-28T00:02:45.072Z,151
2023-01-28T00:03:16.912Z,141
2023-01-28T00:03:48.883Z,141
2023-01-28T00:04:21.024Z,141
2023-01-28T00:04:52.933Z,141
2023-01-28T00:05:24.961Z,146
2023-01-28T00:05:56.959Z,206
2023-01-28T00:06:28.800Z,223
2023-01-28T00:07:01.022Z,82
2023-01-28T00:07:32.586Z,103
2023-01-28T00:08:05.010Z,82
2023-01-28T00:08:20.955Z,150
2023-01-28T00:09:05.084Z,118
2023-01-28T00:09:36.660Z,120
2023-01-28T00:10:08.799Z,103
2023-01-28T00:10:40.842Z,90
2023-01-28T00:11:12.573Z,108
2023-01-28T00:11:44.766Z,85
2023-01-28T00:12:16.623Z,88
2023-01-28T00:12:48.435Z,90
2023-01-28T00:13:04.977Z,92
2023-01-28T00:13:36.519Z,91
2023-01-28T00:13:52.541Z,90
2023-01-28T00:14:24.337Z,91
2023-01-28T00:14:56.467Z,97
2023-01-28T00:15:28.786Z,97
2023-01-28T00:16:00.515Z,100
2023-01-28T00:16:32.448Z,25
2023-01-28T00:17:04.657Z,6
2023-01-28T00:17:20.452Z,292
2023-01-28T00:17:52.345Z,352
2023-01-28T00:18:36.515Z,347
2023-01-28T00:19:08.165Z,110
2023-01-28T00:19:40.289Z,133
2023-01-28T00:20:12.741Z,130
2023-01-28T00:20:44.305Z,150
2023-01-28T00:21:16.080Z,173
2023-01-28T00:21:48.154Z,183
2023-01-28T00:22:04.728Z,193
2023-01-28T00:22:48.712Z,184
2023-01-28T00:23:20.233Z,186
2023-01-28T00:23:52.054Z,169
2023-01-28T00:24:24.057Z,167
2023-01-28T00:24:56.292Z,112
2023-01-28T00:25:28.267Z,102
2023-01-28T00:25:59.967Z,150
2023-01-28T00:26:32.103Z,148
2023-01-28T00:27:04.332Z,155
2023-01-28T00:27:35.977Z,169
2023-01-28T00:28:07.805Z,162
2023-01-28T00:28:39.728Z,162
2023-01-28T00:29:11.973Z,163
2023-01-28T00:29:43.864Z,177
2023-01-28T00:30:17.079Z,178
2023-01-28T00:30:47.783Z,186
2023-01-28T00:31:19.801Z,145
2023-01-28T00:31:51.858Z,122
2023-01-28T00:32:23.711Z,187
2023-01-28T00:32:55.838Z,119
2023-01-28T00:33:11.966Z,158
2023-01-28T00:33:43.650Z,162
2023-01-28T00:34:27.727Z,135
2023-01-28T00:34:59.468Z,157
2023-01-28T00:35:31.911Z,195
2023-01-28T00:36:04.066Z,164
2023-01-28T00:36:35.649Z,148
2023-01-28T00:37:07.472Z,203
2023-01-28T00:37:39.367Z,234
2023-01-28T00:38:11.770Z,210
2023-01-28T00:38:43.589Z,191
2023-01-28T00:39:15.468Z,203
2023-01-28T00:39:47.490Z,183
2023-01-28T00:40:04.141Z,181
2023-01-28T00:40:47.272Z,201
2023-01-28T00:41:19.406Z,287
2023-01-28T00:41:51.263Z,138
2023-01-28T00:42:23.175Z,138
2023-01-28T00:42:55.244Z,136
2023-01-28T00:43:27.285Z,134
2023-01-28T00:43:59.201Z,134
2023-01-28T00:44:31.200Z,202
2023-01-28T00:45:05.963Z,218
2023-01-28T00:45:35.294Z,219
2023-01-28T00:46:07.191Z,210
2023-01-28T00:46:39.059Z,205
2023-01-28T00:47:11.294Z,205
2023-01-28T00:47:43.082Z,250
2023-01-28T00:48:15.182Z,278
2023-01-28T00:48:47.188Z,277
2023-01-28T00:49:03.574Z,259
2023-01-28T00:49:35.229Z,263
2023-01-28T00:49:51.197Z,264
2023-01-28T00:50:23.372Z,257
2023-01-28T00:50:54.840Z,257
2023-01-28T00:51:27.156Z,257
2023-01-28T00:51:58.935Z,257
2023-01-28T00:52:31.010Z,257
2023-01-28T00:53:03.389Z,257
2023-01-28T00:53:18.834Z,257
2023-01-28T00:53:50.702Z,257
2023-01-28T00:54:35.162Z,172
2023-01-28T00:55:06.995Z,220
2023-01-28T00:55:38.701Z,220
2023-01-28T00:56:11.017Z,228
2023-01-28T00:56:42.616Z,174
2023-01-28T00:57:14.911Z,232
2023-01-28T00:57:46.731Z,221
2023-01-28T00:58:03.513Z,236
2023-01-28T00:58:46.737Z,231
2023-01-28T00:59:18.503Z,232
2023-01-28T00:59:50.474Z,206
2023-01-28T01:00:22.966Z,221
2023-01-28T01:00:54.477Z,230
2023-01-28T01:01:26.779Z,232
2023-01-28T01:01:58.570Z,207
2023-01-28T01:02:30.609Z,224
2023-01-28T01:03:02.961Z,196
2023-01-28T01:03:34.561Z,210
2023-01-28T01:04:06.354Z,229
2023-01-28T01:04:38.268Z,240
2023-01-28T01:05:10.674Z,245
2023-01-28T01:05:42.510Z,241
2023-01-28T01:06:14.290Z,243
2023-01-28T01:06:46.201Z,243
2023-01-28T01:07:02.861Z,214
2023-01-28T01:07:34.195Z,234
2023-01-28T01:07:50.529Z,198
2023-01-28T01:08:22.084Z,190
2023-01-28T01:08:54.141Z,106
2023-01-28T01:09:26.242Z,92
2023-01-28T01:09:58.259Z,121
2023-01-28T01:10:30.459Z,145
2023-01-28T01:11:02.767Z,145
2023-01-28T01:11:18.204Z,144
2023-01-28T01:11:50.080Z,195
2023-01-28T01:12:34.041Z,230
2023-01-28T01:13:06.102Z,217
2023-01-28T01:13:37.939Z,226
2023-01-28T01:14:09.884Z,219
2023-01-28T01:14:42.336Z,220
2023-01-28T01:15:14.957Z,232
2023-01-28T01:15:45.887Z,248
2023-01-28T01:16:17.887Z,241
2023-01-28T01:16:49.924Z,229
2023-01-28T01:17:21.975Z,182
2023-01-28T01:17:53.729Z,140
2023-01-28T01:18:25.840Z,140
2023-01-28T01:18:57.726Z,140
2023-01-28T01:19:29.834Z,140
2023-01-28T01:20:02.391Z,141
2023-01-28T01:20:17.758Z,141
2023-01-28T01:21:02.086Z,232
2023-01-28T01:21:33.668Z,237
2023-01-28T01:22:05.686Z,182
2023-01-28T01:22:37.615Z,183
2023-01-28T01:23:09.544Z,204
2023-01-28T01:23:41.648Z,208
2023-01-28T01:24:13.358Z,218
2023-01-28T01:24:45.677Z,211
2023-01-28T01:25:02.437Z,225
2023-01-28T01:25:33.415Z,227
2023-01-28T01:25:49.763Z,228
2023-01-28T01:26:21.724Z,229
2023-01-28T01:26:53.328Z,230
2023-01-28T01:27:25.486Z,230
2023-01-28T01:27:57.478Z,233
2023-01-28T01:28:29.472Z,164
2023-01-28T01:29:01.752Z,169
2023-01-28T01:29:17.435Z,186
2023-01-28T01:29:49.129Z,208
2023-01-28T01:30:33.731Z,238
2023-01-28T01:31:05.765Z,239
2023-01-28T01:31:37.328Z,224
2023-01-28T01:32:09.316Z,173
2023-01-28T01:32:41.406Z,143
2023-01-28T01:33:12.986Z,210
2023-01-28T01:33:45.328Z,202
2023-01-28T01:34:01.393Z,202
2023-01-28T01:34:45.213Z,207
2023-01-28T01:35:17.997Z,229
2023-01-28T01:35:49.266Z,199
2023-01-28T01:36:21.191Z,228
2023-01-28T01:36:52.969Z,229
2023-01-28T01:37:25.089Z,223
2023-01-28T01:37:56.974Z,217
2023-01-28T01:38:28.952Z,235
2023-01-28T01:39:00.965Z,231
2023-01-28T01:39:33.048Z,229
2023-01-28T01:40:05.377Z,231
2023-01-28T01:40:37.014Z,155
2023-01-28T01:41:08.826Z,132
2023-01-28T01:41:40.930Z,130
2023-01-28T01:42:12.757Z,147
2023-01-28T01:42:44.790Z,147
2023-01-28T01:43:16.939Z,147
2023-01-28T01:43:48.835Z,147
2023-01-28T01:44:20.709Z,147
2023-01-28T01:44:52.690Z,147
2023-01-28T01:45:25.262Z,147
2023-01-28T01:45:57.024Z,147
2023-01-28T01:46:28.431Z,147
2023-01-28T01:47:00.735Z,147
2023-01-28T01:47:16.717Z,147
2023-01-28T01:47:48.480Z,147
2023-01-28T01:48:32.623Z,147
2023-01-28T01:49:04.646Z,147
2023-01-28T01:49:36.745Z,147
2023-01-28T01:50:08.822Z,147
2023-01-28T01:50:40.505Z,147
2023-01-28T01:51:12.626Z,147
2023-01-28T01:51:44.543Z,147
2023-01-28T01:52:00.766Z,147
2023-01-28T01:52:44.413Z,147
2023-01-28T01:53:16.432Z,147
2023-01-28T01:53:48.234Z,147
2023-01-28T01:54:20.319Z,147
2023-01-28T01:54:52.345Z,147
2023-01-28T01:55:24.551Z,147
2023-01-28T01:55:56.228Z,147
2023-01-28T01:56:28.339Z,147
2023-01-28T01:57:00.320Z,147
2023-01-28T01:57:32.319Z,147
2023-01-28T01:58:04.516Z,147
2023-01-28T01:58:36.500Z,147
2023-01-28T01:59:08.099Z,147
2023-01-28T01:59:40.078Z,147
2023-01-28T02:00:13.499Z,147
2023-01-28T02:00:43.929Z,147
2023-01-28T02:01:16.217Z,147
2023-01-28T02:01:48.240Z,147
2023-01-28T02:02:19.993Z,147
2023-01-28T02:02:52.099Z,147
2023-01-28T02:03:24.070Z,140
2023-01-28T02:03:56.316Z,147
2023-01-28T02:04:27.862Z,233
2023-01-28T02:05:00.062Z,248
2023-01-28T02:05:32.245Z,242
2023-01-28T02:06:04.544Z,251
2023-01-28T02:06:35.919Z,246
2023-01-28T02:07:07.682Z,220
2023-01-28T02:07:39.818Z,198
2023-01-28T02:08:12.034Z,207
2023-01-28T02:08:44.304Z,222
2023-01-28T02:09:16.696Z,239
2023-01-28T02:09:31.872Z,232
2023-01-28T02:10:04.480Z,205
2023-01-28T02:10:47.573Z,235
2023-01-28T02:11:19.473Z,260
2023-01-28T02:11:51.864Z,256
2023-01-28T02:12:23.509Z,264
2023-01-28T02:12:55.513Z,256
2023-01-28T02:13:27.539Z,224
2023-01-28T02:13:59.558Z,251
2023-01-28T02:14:32.028Z,251
2023-01-28T02:15:06.298Z,251
2023-01-28T02:15:35.420Z,239
2023-01-28T02:16:07.403Z,259
2023-01-28T02:16:39.462Z,228
2023-01-28T02:17:11.650Z,98
2023-01-28T02:17:43.281Z,101
2023-01-28T02:17:59.531Z,98
2023-01-28T02:18:31.340Z,127
2023-01-28T02:18:47.340Z,113
2023-01-28T02:19:19.321Z,77
2023-01-28T02:19:51.273Z,101
2023-01-28T02:20:23.439Z,105
2023-01-28T02:20:55.302Z,105
2023-01-28T02:21:27.328Z,115
2023-01-28T02:21:59.137Z,103
2023-01-28T02:22:15.447Z,102
2023-01-28T02:22:47.007Z,102
2023-01-28T02:23:31.230Z,110
2023-01-28T02:24:03.932Z,118
2023-01-28T02:24:34.899Z,124
2023-01-28T02:25:07.286Z,107
2023-01-28T02:25:38.998Z,114
2023-01-28T02:26:11.133Z,115
2023-01-28T02:26:42.870Z,119
2023-01-28T02:26:58.971Z,136
2023-01-28T02:27:42.885Z,142
2023-01-28T02:28:14.937Z,164
2023-01-28T02:28:46.958Z,157
2023-01-28T02:29:18.751Z,150
2023-01-28T02:29:51.111Z,150
2023-01-28T02:30:23.182Z,150
2023-01-28T02:30:55.020Z,150
2023-01-28T02:31:27.024Z,167
2023-01-28T02:31:58.719Z,166
2023-01-28T02:32:30.942Z,166
2023-01-28T02:33:03.185Z,166
2023-01-28T02:33:34.559Z,166
2023-01-28T02:34:06.838Z,122
2023-01-28T02:34:38.676Z,125
2023-01-28T02:35:10.868Z,114
2023-01-28T02:35:42.651Z,113
2023-01-28T02:35:58.899Z,113
2023-01-28T02:36:30.696Z,113
2023-01-28T02:36:46.584Z,113
2023-01-28T02:37:18.569Z,113
2023-01-28T02:37:50.490Z,115
2023-01-28T02:38:06.611Z,118
2023-01-28T02:38:38.392Z,118
2023-01-28T02:39:22.393Z,112
2023-01-28T02:39:54.433Z,102
2023-01-28T02:40:26.588Z,108
2023-01-28T02:40:58.364Z,110
2023-01-28T02:41:30.757Z,107
2023-01-28T02:42:02.668Z,116
2023-01-28T02:42:34.245Z,103
2023-01-28T02:43:06.435Z,102
2023-01-28T02:43:38.241Z,118
2023-01-28T02:44:10.162Z,118
2023-01-28T02:44:42.449Z,97
2023-01-28T02:44:58.371Z,98
2023-01-28T02:45:42.540Z,105
2023-01-28T02:46:14.218Z,105
2023-01-28T02:46:46.046Z,108
2023-01-28T02:47:17.933Z,108
2023-01-28T02:47:50.013Z,35
2023-01-28T02:48:22.394Z,316
2023-01-28T02:48:53.895Z,292
2023-01-28T02:49:25.948Z,277
2023-01-28T02:49:58.085Z,249
2023-01-28T02:50:30.363Z,125
2023-01-28T02:51:02.040Z,130
2023-01-28T02:51:33.794Z,187
2023-01-28T02:52:05.888Z,138
2023-01-28T02:52:37.834Z,140
2023-01-28T02:53:09.715Z,93
2023-01-28T02:53:41.885Z,60
2023-01-28T02:54:13.697Z,124
2023-01-28T02:54:46.010Z,188
2023-01-28T02:55:18.046Z,191
2023-01-28T02:55:49.603Z,198
2023-01-28T02:56:21.950Z,205
2023-01-28T02:56:53.637Z,212
2023-01-28T02:57:25.686Z,216
2023-01-28T02:57:57.720Z,218
2023-01-28T02:58:29.681Z,189
2023-01-28T02:59:01.856Z,203
2023-01-28T02:59:33.566Z,153
2023-01-28T03:00:06.945Z,161
2023-01-28T03:00:37.501Z,171
2023-01-28T03:01:09.626Z,161
2023-01-28T03:01:41.795Z,193
2023-01-28T03:02:13.517Z,196
2023-01-28T03:02:45.775Z,137
2023-01-28T03:03:17.560Z,220
2023-01-28T03:03:49.528Z,240
2023-01-28T03:04:21.545Z,163
2023-01-28T03:04:53.306Z,218
2023-01-28T03:05:25.686Z,176
2023-01-28T03:05:57.543Z,180
2023-01-28T03:06:29.141Z,191
2023-01-28T03:06:45.524Z,231
2023-01-28T03:07:17.441Z,205
2023-01-28T03:08:01.670Z,222
2023-01-28T03:08:33.291Z,228
2023-01-28T03:09:05.148Z,210
2023-01-28T03:09:37.127Z,218
2023-01-28T03:10:09.338Z,219
2023-01-28T03:10:41.185Z,219
2023-01-28T03:11:12.950Z,219
2023-01-28T03:11:29.062Z,229
2023-01-28T03:12:13.159Z,193
2023-01-28T03:12:45.376Z,188
2023-01-28T03:13:16.988Z,153
2023-01-28T03:13:49.012Z,119
2023-01-28T03:14:21.103Z,160
2023-01-28T03:14:52.879Z,164
2023-01-28T03:15:25.462Z,164
2023-01-28T03:15:57.055Z,171
2023-01-28T03:16:13.071Z,174
2023-01-28T03:16:44.789Z,142
2023-01-28T03:17:28.901Z,139
2023-01-28T03:18:01.097Z,120
2023-01-28T03:18:32.694Z,127
2023-01-28T03:19:04.955Z,233
2023-01-28T03:19:36.853Z,234
2023-01-28T03:20:09.001Z,234
2023-01-28T03:20:40.692Z,195
2023-01-28T03:21:12.804Z,196
2023-01-28T03:21:44.780Z,145
2023-01-28T03:22:16.646Z,149
2023-01-28T03:22:48.544Z,149
2023-01-28T03:23:20.616Z,149
2023-01-28T03:23:52.669Z,149
2023-01-28T03:24:24.616Z,178
2023-01-28T03:24:56.462Z,197
2023-01-28T03:25:13.358Z,216
2023-01-28T03:25:56.482Z,229
2023-01-28T03:26:28.514Z,188
2023-01-28T03:27:00.802Z,221
2023-01-28T03:27:32.438Z,241
2023-01-28T03:28:04.812Z,239
2023-01-28T03:28:36.491Z,239
2023-01-28T03:29:08.373Z,145
2023-01-28T03:29:41.978Z,102
2023-01-28T03:30:13.269Z,132
2023-01-28T03:30:28.510Z,227
2023-01-28T03:31:12.194Z,174
2023-01-28T03:31:44.262Z,175
2023-01-28T03:32:16.482Z,178
2023-01-28T03:32:48.143Z,118
2023-01-28T03:33:20.188Z,121
2023-01-28T03:33:52.220Z,117
2023-01-28T03:34:24.031Z,174
2023-01-28T03:34:56.115Z,174
2023-01-28T03:35:28.489Z,166
2023-01-28T03:36:00.277Z,143
2023-01-28T03:36:32.066Z,130
2023-01-28T03:37:04.450Z,165
2023-01-28T03:37:36.076Z,125
2023-01-28T03:38:07.920Z,144
2023-01-28T03:38:39.969Z,153
2023-01-28T03:38:56.108Z,108
2023-01-28T03:39:39.834Z,134
2023-01-28T03:40:12.278Z,143
2023-01-28T03:40:43.719Z,138
2023-01-28T03:41:15.921Z,121
2023-01-28T03:41:47.712Z,121
2023-01-28T03:42:20.077Z,122
2023-01-28T03:42:51.863Z,142
2023-01-28T03:43:23.601Z,130
2023-01-28T03:43:55.899Z,128
2023-01-28T03:44:27.873Z,130
2023-01-28T03:44:59.469Z,147
2023-01-28T03:45:32.304Z,139
2023-01-28T03:46:03.995Z,118
2023-01-28T03:46:35.621Z,121
2023-01-28T03:47:07.789Z,128
2023-01-28T03:47:40.824Z,65
2023-01-28T03:47:55.712Z,65
2023-01-28T03:48:27.479Z,65
2023-01-28T03:48:43.531Z,65
2023-01-28T03:49:15.429Z,58
2023-01-28T03:49:47.331Z,59
2023-01-28T03:50:19.601Z,311
2023-01-28T03:50:51.540Z,245
2023-01-28T03:51:23.430Z,245
2023-01-28T03:51:55.309Z,185
2023-01-28T03:52:11.475Z,206
2023-01-28T03:52:43.313Z,205
2023-01-28T03:53:27.525Z,207
2023-01-28T03:53:59.072Z,198
2023-01-28T03:54:31.420Z,199
2023-01-28T03:55:04.028Z,208
2023-01-28T03:55:35.321Z,162
2023-01-28T03:56:07.367Z,163
2023-01-28T03:56:39.089Z,163
2023-01-28T03:56:55.460Z,163
2023-01-28T03:57:39.073Z,143
2023-01-28T03:58:11.240Z,101
2023-01-28T03:58:43.148Z,114
2023-01-28T03:59:14.954Z,98
2023-01-28T03:59:46.991Z,110
2023-01-28T04:00:19.479Z,126
2023-01-28T04:00:50.946Z,141
2023-01-28T04:01:23.032Z,141
2023-01-28T04:01:55.234Z,149
2023-01-28T04:02:27.190Z,156
2023-01-28T04:02:58.893Z,194
2023-01-28T04:03:31.218Z,199
2023-01-28T04:04:04.360Z,217
2023-01-28T04:04:34.963Z,229
2023-01-28T04:05:07.118Z,216
2023-01-28T04:05:38.653Z,143
2023-01-28T04:06:11.006Z,179
2023-01-28T04:06:42.901Z,201
2023-01-28T04:07:14.854Z,244
2023-01-28T04:07:46.952Z,235
2023-01-28T04:08:18.726Z,251
2023-01-28T04:08:50.684Z,243
2023-01-28T04:09:22.842Z,238
2023-01-28T04:09:54.699Z,231
2023-01-28T04:10:11.102Z,231
2023-01-28T04:10:42.714Z,240
2023-01-28T04:11:26.745Z,179
2023-01-28T04:11:58.431Z,252
2023-01-28T04:12:30.507Z,247
2023-01-28T04:13:02.622Z,191
2023-01-28T04:13:34.513Z,184
2023-01-28T04:14:06.449Z,244
2023-01-28T04:14:38.449Z,226
2023-01-28T04:14:54.647Z,231
2023-01-28T04:15:38.678Z,225
2023-01-28T04:16:10.486Z,230
2023-01-28T04:16:42.335Z,213
2023-01-28T04:17:14.219Z,197
2023-01-28T04:17:46.449Z,128
2023-01-28T04:18:18.293Z,118
2023-01-28T04:18:50.108Z,182
2023-01-28T04:19:22.278Z,198
2023-01-28T04:19:54.185Z,207
2023-01-28T04:20:26.671Z,205
2023-01-28T04:20:58.267Z,250
2023-01-28T04:21:30.053Z,251
2023-01-28T04:22:02.560Z,180
2023-01-28T04:22:34.182Z,184
2023-01-28T04:23:06.034Z,213
2023-01-28T04:23:38.071Z,210
2023-01-28T04:24:10.196Z,210
2023-01-28T04:24:42.069Z,219
2023-01-28T04:25:14.889Z,223
2023-01-28T04:25:46.070Z,198
2023-01-28T04:26:17.868Z,261
2023-01-28T04:26:49.942Z,221
2023-01-28T04:27:22.014Z,207
2023-01-28T04:27:53.870Z,249
2023-01-28T04:28:26.061Z,1
2023-01-28T04:28:58.018Z,45
2023-01-28T04:29:29.726Z,37
2023-01-28T04:30:05.083Z,323
2023-01-28T04:30:33.829Z,359
2023-01-28T04:31:06.068Z,326
2023-01-28T04:31:37.722Z,305
2023-01-28T04:32:11.624Z,281
2023-01-28T04:32:42.193Z,71
2023-01-28T04:33:13.726Z,48
2023-01-28T04:33:45.640Z,110
2023-01-28T04:34:17.570Z,104
2023-01-28T04:34:49.733Z,135
2023-01-28T04:35:22.023Z,175
2023-01-28T04:35:53.441Z,145
2023-01-28T04:36:09.467Z,149
2023-01-28T04:36:53.501Z,204
2023-01-28T04:37:09.686Z,144
2023-01-28T04:37:53.507Z,46
2023-01-28T04:38:25.643Z,90
2023-01-28T04:38:57.361Z,94
2023-01-28T04:39:29.380Z,115
2023-01-28T04:40:01.966Z,53
2023-01-28T04:40:33.374Z,102
2023-01-28T04:41:05.730Z,100
2023-01-28T04:41:37.383Z,100
2023-01-28T04:42:09.284Z,100
2023-01-28T04:42:41.488Z,105
2023-01-28T04:43:13.203Z,108
2023-01-28T04:43:46.692Z,167
2023-01-28T04:44:17.344Z,138
2023-01-28T04:44:49.225Z,160
2023-01-28T04:45:21.381Z,154
2023-01-28T04:45:53.167Z,149
2023-01-28T04:46:09.199Z,138
2023-01-28T04:46:41.296Z,155
2023-01-28T04:47:25.473Z,152
2023-01-28T04:47:56.950Z,129
2023-01-28T04:48:13.162Z,129
2023-01-28T04:48:44.996Z,168
2023-01-28T04:49:28.999Z,127
2023-01-28T04:50:01.938Z,222
2023-01-28T04:50:32.811Z,183
2023-01-28T04:51:05.279Z,187
2023-01-28T04:51:37.127Z,194
2023-01-28T04:52:08.847Z,197
2023-01-28T04:52:40.998Z,186
2023-01-28T04:53:12.854Z,187
2023-01-28T04:53:45.012Z,151
2023-01-28T04:54:16.980Z,164
2023-01-28T04:54:48.702Z,234
2023-01-28T04:55:21.037Z,214
2023-01-28T04:55:52.793Z,207
2023-01-28T04:56:25.017Z,203
2023-01-28T04:56:56.829Z,175
2023-01-28T04:57:28.782Z,116
2023-01-28T04:58:00.953Z,65
2023-01-28T04:58:32.726Z,77
2023-01-28T04:59:04.810Z,128
2023-01-28T04:59:36.608Z,85
2023-01-28T04:59:52.710Z,84
2023-01-28T05:00:24.814Z,114
2023-01-28T05:00:40.811Z,115
2023-01-28T05:01:12.369Z,115
2023-01-28T05:01:44.777Z,114
2023-01-28T05:02:16.634Z,115
2023-01-28T05:02:48.381Z,115
2023-01-28T05:03:20.413Z,115
2023-01-28T05:03:36.606Z,115
2023-01-28T05:04:20.383Z,113
2023-01-28T05:04:52.446Z,90
2023-01-28T05:05:24.590Z,229
2023-01-28T05:05:56.391Z,229
2023-01-28T05:06:28.344Z,221
2023-01-28T05:07:00.301Z,197
2023-01-28T05:07:32.521Z,201
2023-01-28T05:08:04.329Z,205
2023-01-28T05:08:36.176Z,107
2023-01-28T05:09:08.205Z,106
2023-01-28T05:09:40.357Z,130
2023-01-28T05:10:12.206Z,120
2023-01-28T05:10:44.058Z,100
2023-01-28T05:11:16.319Z,136
2023-01-28T05:11:48.162Z,128
2023-01-28T05:12:19.939Z,131
2023-01-28T05:12:51.976Z,131
2023-01-28T05:13:23.978Z,195
2023-01-28T05:13:56.608Z,177
2023-01-28T05:14:27.798Z,184
2023-01-28T05:14:59.881Z,171
2023-01-28T05:15:32.389Z,133
2023-01-28T05:16:03.915Z,129
2023-01-28T05:16:35.920Z,214
2023-01-28T05:16:51.996Z,217
2023-01-28T05:17:23.988Z,239
2023-01-28T05:18:07.950Z,251
2023-01-28T05:18:40.223Z,173
2023-01-28T05:19:11.792Z,173
2023-01-28T05:19:43.713Z,168
2023-01-28T05:20:16.038Z,168
2023-01-28T05:20:47.836Z,168
2023-01-28T05:21:19.523Z,209
2023-01-28T05:21:51.659Z,217
2023-01-28T05:22:07.742Z,219
2023-01-28T05:22:39.449Z,220
2023-01-28T05:23:23.755Z,219
2023-01-28T05:23:55.812Z,219
2023-01-28T05:24:27.607Z,219
2023-01-28T05:24:59.501Z,198
2023-01-28T05:25:31.955Z,238
2023-01-28T05:26:03.521Z,222
2023-01-28T05:26:35.489Z,227
2023-01-28T05:26:51.583Z,236
2023-01-28T05:27:35.457Z,246
2023-01-28T05:28:07.544Z,205
2023-01-28T05:28:39.246Z,215
2023-01-28T05:29:11.343Z,162
2023-01-28T05:29:43.381Z,208
2023-01-28T05:30:17.087Z,206
2023-01-28T05:30:47.295Z,245
2023-01-28T05:31:19.249Z,203
2023-01-28T05:31:51.267Z,188
2023-01-28T05:32:23.305Z,205
2023-01-28T05:32:55.283Z,215
2023-01-28T05:33:27.285Z,228
2023-01-28T05:33:59.121Z,218
2023-01-28T05:34:31.319Z,202
2023-01-28T05:35:04.026Z,214
2023-01-28T05:35:35.135Z,214
2023-01-28T05:35:51.528Z,218
2023-01-28T05:36:23.071Z,220
2023-01-28T05:36:39.080Z,180
2023-01-28T05:37:11.159Z,137
2023-01-28T05:37:42.957Z,224
2023-01-28T05:38:15.552Z,177
2023-01-28T05:38:47.360Z,185
2023-01-28T05:39:18.798Z,152
2023-01-28T05:39:51.035Z,151
2023-01-28T05:40:07.293Z,151
2023-01-28T05:40:38.885Z,151
2023-01-28T05:41:23.006Z,150
2023-01-28T05:41:54.670Z,150
2023-01-28T05:42:26.932Z,151
2023-01-28T05:42:58.825Z,151
2023-01-28T05:43:31.029Z,150
2023-01-28T05:44:03.447Z,150
2023-01-28T05:44:34.909Z,140
2023-01-28T05:44:50.991Z,121
2023-01-28T05:45:35.247Z,141
2023-01-28T05:46:06.853Z,159
2023-01-28T05:46:38.544Z,165
2023-01-28T05:47:10.561Z,131
2023-01-28T05:47:44.891Z,170
2023-01-28T05:48:14.638Z,82
2023-01-28T05:48:46.639Z,82
2023-01-28T05:49:18.427Z,123
2023-01-28T05:49:50.691Z,122
2023-01-28T05:50:22.918Z,108
2023-01-28T05:50:54.331Z,110
2023-01-28T05:51:26.564Z,120
2023-01-28T05:51:58.408Z,104
2023-01-28T05:52:30.390Z,94
2023-01-28T05:53:03.202Z,105
2023-01-28T05:53:34.280Z,99
2023-01-28T05:54:06.402Z,104
2023-01-28T05:54:38.429Z,93
2023-01-28T05:55:10.426Z,77
2023-01-28T05:55:42.336Z,95
2023-01-28T05:56:14.261Z,116
2023-01-28T05:56:46.424Z,110
2023-01-28T05:57:18.165Z,96
2023-01-28T05:57:50.254Z,116
2023-01-28T05:58:22.301Z,107
2023-01-28T05:58:54.135Z,107
2023-01-28T05:59:26.176Z,118
2023-01-28T05:59:57.981Z,108
2023-01-28T06:00:30.513Z,115
2023-01-28T06:01:03.093Z,131
2023-01-28T06:01:33.808Z,108
2023-01-28T06:01:50.273Z,134
2023-01-28T06:02:33.920Z,120
2023-01-28T06:02:50.170Z,122
2023-01-28T06:03:33.858Z,128
2023-01-28T06:04:06.110Z,129
2023-01-28T06:04:37.800Z,128
2023-01-28T06:05:10.071Z,128
2023-01-28T06:05:42.042Z,161
2023-01-28T06:06:13.793Z,163
2023-01-28T06:06:45.733Z,167
2023-01-28T06:07:17.875Z,131
2023-01-28T06:07:49.751Z,135
2023-01-28T06:08:21.902Z,91
2023-01-28T06:08:53.632Z,87
2023-01-28T06:09:25.670Z,93
2023-01-28T06:09:57.635Z,104
2023-01-28T06:10:30.065Z,103
2023-01-28T06:11:02.419Z,102
2023-01-28T06:11:33.592Z,116
2023-01-28T06:11:49.721Z,116
2023-01-28T06:12:21.675Z,116
2023-01-28T06:12:37.666Z,116
2023-01-28T06:13:09.427Z,121
2023-01-28T06:13:41.766Z,120
2023-01-28T06:14:13.448Z,125
2023-01-28T06:14:45.614Z,106
2023-01-28T06:15:18.126Z,106
2023-01-28T06:15:49.325Z,105
2023-01-28T06:16:05.780Z,114
2023-01-28T06:16:37.345Z,125
2023-01-28T06:17:21.596Z,119
2023-01-28T06:17:53.350Z,86
2023-01-28T06:18:25.295Z,115
2023-01-28T06:18:57.387Z,115
2023-01-28T06:19:29.300Z,119
2023-01-28T06:20:01.617Z,116
2023-01-28T06:20:33.380Z,116
2023-01-28T06:21:05.402Z,113
2023-01-28T06:21:37.305Z,114
2023-01-28T06:22:08.952Z,114
2023-01-28T06:22:41.333Z,114
2023-01-28T06:23:13.109Z,114
2023-01-28T06:23:45.255Z,114
2023-01-28T06:24:17.026Z,114
2023-01-28T06:24:49.020Z,167
2023-01-28T06:25:05.668Z,148
2023-01-28T06:25:48.948Z,159
2023-01-28T06:26:21.164Z,164
2023-01-28T06:26:52.925Z,165
2023-01-28T06:27:24.765Z,195
2023-01-28T06:27:56.922Z,216
2023-01-28T06:28:28.955Z,213
2023-01-28T06:29:00.954Z,226
2023-01-28T06:29:33.027Z,230
2023-01-28T06:30:06.751Z,191
2023-01-28T06:30:36.951Z,227
2023-01-28T06:31:08.691Z,230
2023-01-28T06:31:40.736Z,226
2023-01-28T06:32:12.741Z,228
2023-01-28T06:32:44.854Z,225
2023-01-28T06:33:16.678Z,225
2023-01-28T06:33:48.717Z,212
2023-01-28T06:34:04.776Z,218
2023-01-28T06:34:36.721Z,225
2023-01-28T06:35:21.002Z,226
2023-01-28T06:35:52.656Z,231
2023-01-28T06:36:24.509Z,167
2023-01-28T06:36:56.568Z,195
2023-01-28T06:37:28.486Z,211
2023-01-28T06:38:00.440Z,224
2023-01-28T06:38:16.612Z,216
2023-01-28T06:38:48.585Z,204
2023-01-28T06:39:32.645Z,241
2023-01-28T06:40:05.029Z,206
2023-01-28T06:40:36.551Z,167
2023-01-28T06:41:08.438Z,157
2023-01-28T06:41:40.449Z,146
2023-01-28T06:42:12.762Z,188
2023-01-28T06:42:44.137Z,277
2023-01-28T06:43:16.222Z,208
2023-01-28T06:43:48.393Z,216
2023-01-28T06:44:20.325Z,217
2023-01-28T06:44:52.321Z,237
2023-01-28T06:45:24.530Z,245
2023-01-28T06:45:56.299Z,238
2023-01-28T06:46:28.421Z,223
2023-01-28T06:47:00.054Z,174
2023-01-28T06:47:32.215Z,196
2023-01-28T06:47:48.377Z,243
2023-01-28T06:48:19.964Z,162
2023-01-28T06:48:36.338Z,221
2023-01-28T06:49:07.976Z,229
2023-01-28T06:49:39.969Z,228
2023-01-28T06:50:12.544Z,220
2023-01-28T06:50:43.970Z,210
2023-01-28T06:51:15.952Z,307
2023-01-28T06:51:47.885Z,255
2023-01-28T06:52:19.933Z,228
2023-01-28T06:52:51.991Z,213
2023-01-28T06:53:23.790Z,208
2023-01-28T06:53:55.893Z,233
2023-01-28T06:54:27.834Z,209
2023-01-28T06:54:59.875Z,242
2023-01-28T06:55:32.144Z,228
2023-01-28T06:55:47.896Z,239
2023-01-28T06:56:31.710Z,250
2023-01-28T06:57:04.447Z,242
2023-01-28T06:57:35.951Z,225
2023-01-28T06:58:07.583Z,218
2023-01-28T06:58:39.617Z,211
2023-01-28T06:59:11.809Z,224
2023-01-28T06:59:43.639Z,224
2023-01-28T07:00:18.093Z,237
2023-01-28T07:00:47.567Z,217
2023-01-28T07:01:19.543Z,227
2023-01-28T07:01:51.739Z,229
2023-01-28T07:02:24.868Z,215
2023-01-28T07:02:55.635Z,217
2023-01-28T07:03:27.569Z,225
2023-01-28T07:03:59.479Z,228
2023-01-28T07:04:31.616Z,318
2023-01-28T07:04:47.687Z,132
2023-01-28T07:05:19.449Z,131
2023-01-28T07:05:35.523Z,140
2023-01-28T07:06:07.327Z,249
2023-01-28T07:06:39.342Z,241
2023-01-28T07:07:11.617Z,241
2023-01-28T07:07:43.296Z,219
2023-01-28T07:08:15.664Z,226
2023-01-28T07:08:47.353Z,237
2023-01-28T07:09:04.302Z,172
2023-01-28T07:09:35.684Z,205
2023-01-28T07:10:19.517Z,175
2023-01-28T07:10:51.480Z,168
2023-01-28T07:11:23.217Z,185
2023-01-28T07:11:55.219Z,234
2023-01-28T07:12:27.330Z,113